createdAt,value
2018-03-28T00:02:01.616Z,53.35
2018-03-28T00:04:34.092Z,53.62
2018-03-28T00:07:06.592Z,53.85
2018-03-28T00:09:39.198Z,53.52
2018-03-28T00:12:11.690Z,53.09
2018-03-28T00:14:44.267Z,53.04
2018-03-28T00:17:16.775Z,53.19
2018-03-28T00:19:49.998Z,52.90
2018-03-28T00:22:22.619Z,52.68
2018-03-28T00:24:55.181Z,52.01
2018-03-28T00:27:28.349Z,52.37
2018-03-28T00:30:00.852Z,52.09
2018-03-28T00:32:33.355Z,52.77
2018-03-28T00:35:05.838Z,52.95
2018-03-28T00:37:38.335Z,53.03
2018-03-28T00:40:10.806Z,53.80
2018-03-28T00:42:43.302Z,54.32
2018-03-28T00:45:16.602Z,54.56
2018-03-28T00:47:49.253Z,54.75
2018-03-28T00:50:21.883Z,55.69
2018-03-28T00:52:54.463Z,56.68
2018-03-28T00:55:27.003Z,55.68
2018-03-28T00:57:59.556Z,55.81
2018-03-28T01:00:32.054Z,55.18
2018-03-28T01:03:04.550Z,55.12
2018-03-28T01:05:37.026Z,54.45
2018-03-28T01:08:09.526Z,55.74
2018-03-28T01:10:42.013Z,55.28
2018-03-28T01:13:14.506Z,55.78
2018-03-28T01:15:47.011Z,56.53
2018-03-28T01:18:19.684Z,55.65
2018-03-28T01:20:52.527Z,56.40
2018-03-28T01:23:25.102Z,55.90
2018-03-28T01:25:57.705Z,55.63
2018-03-28T01:28:30.293Z,55.06
2018-03-28T01:31:02.771Z,55.72
2018-03-28T01:33:35.264Z,55.73
2018-03-28T01:36:07.734Z,56.42
2018-03-28T01:38:40.223Z,55.80
2018-03-28T01:41:12.697Z,57.86
2018-03-28T01:43:45.198Z,55.63
2018-03-28T01:46:17.854Z,56.08
2018-03-28T01:48:50.776Z,55.45
2018-03-28T01:51:23.403Z,55.56
2018-03-28T01:53:56.070Z,56.33
2018-03-28T01:56:28.783Z,56.09
2018-03-28T01:59:01.332Z,57.51
2018-03-28T02:01:33.879Z,58.54
2018-03-28T02:04:06.374Z,56.23
2018-03-28T02:06:38.855Z,56.69
2018-03-28T02:09:11.354Z,57.55
2018-03-28T02:14:23.002Z,56.16
2018-03-28T02:16:55.644Z,56.11
2018-03-28T02:19:28.263Z,56.39
2018-03-28T02:22:00.799Z,56.35
2018-03-28T02:24:33.291Z,57.87
2018-03-28T02:27:05.790Z,56.40
2018-03-28T02:29:38.267Z,56.39
2018-03-28T02:32:10.767Z,56.32
2018-03-28T02:34:43.238Z,55.90
2018-03-28T02:37:15.743Z,56.15
2018-03-28T02:39:48.342Z,56.72
2018-03-28T02:42:21.134Z,58.32
2018-03-28T02:44:53.722Z,57.21
2018-03-28T02:47:26.364Z,58.36
2018-03-28T02:49:59.073Z,57.26
2018-03-28T02:52:31.643Z,57.71
2018-03-28T02:55:04.138Z,58.54
2018-03-28T02:57:36.640Z,58.92
2018-03-28T03:00:09.132Z,59.95
2018-03-28T03:02:41.622Z,61.97
2018-03-28T03:05:14.094Z,62.07
2018-03-28T03:07:46.591Z,62.86
2018-03-28T03:10:19.222Z,62.03
2018-03-28T03:12:51.896Z,60.98
2018-03-28T03:15:24.422Z,61.91
2018-03-28T03:17:57.014Z,63.87
2018-03-28T03:20:29.572Z,62.56
2018-03-28T03:23:02.099Z,62.48
2018-03-28T03:25:34.580Z,62.68
2018-03-28T03:28:07.071Z,62.76
2018-03-28T03:30:39.553Z,62.14
2018-03-28T03:33:12.062Z,62.11
2018-03-28T03:35:44.542Z,62.71
2018-03-28T03:38:17.052Z,64.23
2018-03-28T03:40:49.671Z,62.93
2018-03-28T03:43:22.334Z,64.56
2018-03-28T03:45:54.886Z,67.08
2018-03-28T03:48:27.482Z,64.45
2018-03-28T03:51:00.035Z,67.47
2018-03-28T03:53:32.526Z,66.02
2018-03-28T03:56:05.002Z,64.40
2018-03-28T03:58:37.498Z,66.76
2018-03-28T04:01:09.970Z,64.94
2018-03-28T04:03:42.463Z,66.01
2018-03-28T04:06:14.938Z,65.31
2018-03-28T04:08:47.480Z,66.08
2018-03-28T04:11:20.491Z,66.23
2018-03-28T04:13:53.283Z,65.14
2018-03-28T04:16:26.022Z,67.14
2018-03-28T04:18:58.699Z,66.98
2018-03-28T04:21:31.310Z,66.06
2018-03-28T04:24:03.803Z,65.14
2018-03-28T04:26:36.275Z,66.76
2018-03-28T04:29:08.762Z,66.49
2018-03-28T04:31:41.238Z,66.66
2018-03-28T04:34:13.731Z,66.03
2018-03-28T04:36:46.207Z,69.90
2018-03-28T04:39:18.962Z,68.37
2018-03-28T04:41:52.008Z,68.88
2018-03-28T04:44:24.634Z,68.27
2018-03-28T04:46:57.177Z,70.33
2018-03-28T04:49:29.774Z,68.52
2018-03-28T04:52:02.307Z,66.57
2018-03-28T04:54:34.806Z,68.83
2018-03-28T04:57:07.283Z,68.33
2018-03-28T04:59:39.782Z,67.34
2018-03-28T05:02:12.251Z,67.60
2018-03-28T05:04:44.750Z,67.51
2018-03-28T05:07:17.288Z,67.60
2018-03-28T05:09:50.017Z,66.61
2018-03-28T05:12:22.830Z,68.88
2018-03-28T05:14:55.492Z,69.07
2018-03-28T05:17:28.086Z,68.21
2018-03-28T05:20:00.705Z,69.80
2018-03-28T05:22:33.213Z,69.50
2018-03-28T05:25:05.695Z,69.84
2018-03-28T05:27:38.167Z,67.04
2018-03-28T05:30:10.667Z,67.73
2018-03-28T05:32:43.146Z,68.26
2018-03-28T05:35:15.639Z,68.33
2018-03-28T05:37:49.144Z,69.29
2018-03-28T05:40:22.042Z,67.37
2018-03-28T05:42:54.667Z,68.38
2018-03-28T05:45:27.263Z,69.39
2018-03-28T05:47:59.802Z,68.02
2018-03-28T05:50:32.442Z,68.39
2018-03-28T05:53:04.907Z,68.77
2018-03-28T05:55:37.411Z,68.40
2018-03-28T05:58:09.920Z,69.08
2018-03-28T06:00:42.391Z,67.50
2018-03-28T06:03:14.894Z,65.49
2018-03-28T06:05:47.416Z,66.45
2018-03-28T06:08:20.116Z,69.38
2018-03-28T06:10:52.969Z,65.53
2018-03-28T06:13:25.695Z,68.54
2018-03-28T06:15:58.409Z,67.26
2018-03-28T06:18:31.068Z,67.20
2018-03-28T06:21:03.583Z,66.87
2018-03-28T06:23:36.080Z,67.24
2018-03-28T06:26:08.551Z,68.37
2018-03-28T06:28:41.042Z,67.37
2018-03-28T06:31:13.524Z,67.16
2018-03-28T06:33:46.021Z,68.17
2018-03-28T06:36:18.644Z,67.52
2018-03-28T06:38:51.502Z,66.77
2018-03-28T06:41:24.162Z,68.17
2018-03-28T06:43:56.885Z,68.12
2018-03-28T06:46:29.593Z,67.36
2018-03-28T06:49:02.115Z,67.11
2018-03-28T06:51:34.606Z,67.45
2018-03-28T06:54:07.112Z,67.95
2018-03-28T06:56:39.590Z,67.23
2018-03-28T06:59:12.086Z,69.75
2018-03-28T07:01:44.563Z,69.16
2018-03-28T07:04:17.085Z,68.50
2018-03-28T07:06:49.742Z,68.25
2018-03-28T07:09:22.552Z,68.24
2018-03-28T07:11:55.312Z,69.80
2018-03-28T07:14:27.854Z,68.64
2018-03-28T07:17:00.348Z,69.26
2018-03-28T07:19:32.873Z,69.25
2018-03-28T07:22:05.350Z,70.47
2018-03-28T07:24:37.862Z,68.98
2018-03-28T07:27:10.344Z,67.51
2018-03-28T07:29:42.854Z,67.47
2018-03-28T07:32:15.334Z,67.50
2018-03-28T07:34:47.918Z,67.48
2018-03-28T07:37:20.941Z,69.39
2018-03-28T07:39:53.796Z,68.13
2018-03-28T07:42:26.443Z,67.96
2018-03-28T07:44:59.057Z,68.20
2018-03-28T07:47:31.669Z,67.69
2018-03-28T07:50:04.214Z,68.71
2018-03-28T07:52:36.687Z,68.60
2018-03-28T07:55:09.219Z,67.71
2018-03-28T07:57:41.698Z,68.42
2018-03-28T08:00:14.195Z,67.23
2018-03-28T08:02:46.662Z,67.01
2018-03-28T08:05:19.949Z,67.07
2018-03-28T08:07:53.058Z,68.47
2018-03-28T08:10:25.718Z,68.45
2018-03-28T08:12:58.388Z,68.68
2018-03-28T08:15:30.883Z,67.76
2018-03-28T08:18:03.380Z,66.37
2018-03-28T08:20:35.886Z,69.20
2018-03-28T08:23:08.363Z,67.47
2018-03-28T08:25:40.876Z,69.51
2018-03-28T08:28:13.357Z,69.26
2018-03-28T08:30:45.846Z,69.36
2018-03-28T08:33:18.534Z,71.32
2018-03-28T08:35:51.728Z,70.17
2018-03-28T08:38:24.423Z,70.78
2018-03-28T08:40:57.063Z,68.97
2018-03-28T08:43:29.713Z,68.87
2018-03-28T08:46:02.294Z,67.84
2018-03-28T08:48:34.780Z,67.71
2018-03-28T08:51:07.412Z,67.87
2018-03-28T08:53:39.902Z,69.02
2018-03-28T08:56:12.404Z,68.55
2018-03-28T08:58:44.916Z,67.58
2018-03-28T09:01:17.486Z,67.74
2018-03-28T09:03:50.461Z,69.46
2018-03-28T09:06:23.223Z,70.65
2018-03-28T09:08:55.854Z,69.56
2018-03-28T09:11:28.749Z,69.29
2018-03-28T09:14:01.468Z,69.22
2018-03-28T09:16:33.990Z,68.23
2018-03-28T09:19:06.459Z,68.53
2018-03-28T09:21:38.957Z,68.88
2018-03-28T09:24:11.434Z,69.28
2018-03-28T09:26:43.937Z,68.94
2018-03-28T09:29:16.414Z,68.87
2018-03-28T09:31:49.108Z,68.67
2018-03-28T09:34:22.325Z,69.40
2018-03-28T09:36:55.023Z,68.60
2018-03-28T09:39:27.645Z,68.23
2018-03-28T09:42:00.222Z,68.47
2018-03-28T09:44:32.719Z,69.10
2018-03-28T09:47:05.240Z,68.32
2018-03-28T09:49:37.735Z,68.52
2018-03-28T09:52:10.239Z,70.17
2018-03-28T09:54:42.735Z,68.39
2018-03-28T09:57:15.210Z,68.23
2018-03-28T09:59:47.886Z,69.00
2018-03-28T10:02:26.257Z,68.27
2018-03-28T10:04:59.862Z,68.11
2018-03-28T10:07:32.435Z,68.93
2018-03-28T10:10:04.935Z,68.50
2018-03-28T10:12:37.405Z,70.23
2018-03-28T10:15:09.903Z,69.17
2018-03-28T10:17:42.374Z,68.46
2018-03-28T10:20:14.877Z,68.86
2018-03-28T10:22:47.408Z,70.76
2018-03-28T10:25:20.251Z,69.30
2018-03-28T10:27:52.818Z,68.99
2018-03-28T10:30:25.404Z,69.11
2018-03-28T10:32:58.018Z,68.44
2018-03-28T10:35:30.642Z,70.93
2018-03-28T10:38:03.164Z,69.57
2018-03-28T10:40:35.679Z,69.71
2018-03-28T10:43:08.160Z,69.81
2018-03-28T10:45:40.658Z,69.48
2018-03-28T10:48:13.168Z,69.37
2018-03-28T10:50:45.661Z,70.46
2018-03-28T10:53:19.085Z,69.48
2018-03-28T10:55:51.940Z,69.73
2018-03-28T10:58:24.687Z,70.63
2018-03-28T11:00:57.277Z,69.00
2018-03-28T11:03:29.884Z,68.36
2018-03-28T11:06:02.501Z,70.21
2018-03-28T11:08:35.003Z,69.21
2018-03-28T11:11:07.503Z,68.50
2018-03-28T11:13:39.983Z,67.65
2018-03-28T11:16:12.560Z,68.79
2018-03-28T11:18:45.040Z,68.44
2018-03-28T11:21:17.534Z,68.20
2018-03-28T11:23:50.294Z,69.92
2018-03-28T11:26:23.182Z,69.65
2018-03-28T11:28:55.730Z,68.27
2018-03-28T11:31:28.531Z,67.31
2018-03-28T11:34:01.143Z,67.56
2018-03-28T11:36:33.687Z,69.08
2018-03-28T11:39:06.158Z,69.04
2018-03-28T11:41:38.658Z,68.47
2018-03-28T11:44:11.138Z,68.45
2018-03-28T11:46:43.634Z,68.21
2018-03-28T11:49:16.147Z,69.26
2018-03-28T11:51:48.803Z,68.58
2018-03-28T11:54:21.461Z,67.11
2018-03-28T11:56:54.096Z,68.47
2018-03-28T11:59:26.748Z,68.32
2018-03-28T12:01:59.452Z,68.80
2018-03-28T12:04:31.943Z,70.19
2018-03-28T12:07:04.486Z,69.64
2018-03-28T12:09:36.953Z,71.41
2018-03-28T12:12:09.451Z,68.34
2018-03-28T12:14:41.930Z,69.80
2018-03-28T12:17:14.430Z,71.38
2018-03-28T12:19:46.894Z,69.55
2018-03-28T12:22:20.075Z,69.33
2018-03-28T12:24:53.207Z,68.98
2018-03-28T12:27:25.875Z,69.22
2018-03-28T12:29:58.457Z,69.01
2018-03-28T12:32:31.063Z,68.22
2018-03-28T12:35:03.667Z,68.62
2018-03-28T12:37:36.249Z,69.27
2018-03-28T12:40:08.732Z,69.08
2018-03-28T12:42:41.228Z,69.25
2018-03-28T12:45:13.703Z,69.98
2018-03-28T12:47:46.202Z,69.35
2018-03-28T12:50:18.870Z,68.66
2018-03-28T12:52:51.485Z,68.68
2018-03-28T12:55:24.189Z,69.96
2018-03-28T12:57:56.685Z,70.46
2018-03-28T13:00:29.194Z,71.19
2018-03-28T13:03:01.689Z,70.73
2018-03-28T13:05:34.190Z,70.45
2018-03-28T13:08:06.840Z,69.61
2018-03-28T13:10:39.302Z,68.71
2018-03-28T13:13:11.804Z,68.68
2018-03-28T13:15:44.279Z,70.76
2018-03-28T13:18:16.774Z,68.91
2018-03-28T13:20:49.330Z,69.04
2018-03-28T13:23:21.963Z,68.37
2018-03-28T13:25:54.624Z,69.10
2018-03-28T13:28:27.215Z,68.77
2018-03-28T13:30:59.752Z,69.78
2018-03-28T13:33:32.248Z,68.87
2018-03-28T13:36:04.742Z,69.24
2018-03-28T13:38:37.226Z,69.07
2018-03-28T13:41:09.723Z,69.61
2018-03-28T13:43:42.202Z,68.53
2018-03-28T13:46:14.694Z,68.55
2018-03-28T13:48:47.178Z,69.95
2018-03-28T13:51:19.873Z,70.28
2018-03-28T13:53:52.608Z,69.36
2018-03-28T13:56:25.148Z,69.18
2018-03-28T13:58:57.667Z,68.59
2018-03-28T14:01:30.261Z,68.40
2018-03-28T14:04:02.745Z,69.92
2018-03-28T14:06:35.250Z,68.58
2018-03-28T14:09:07.727Z,68.97
2018-03-28T14:11:40.228Z,69.14
2018-03-28T14:14:12.706Z,69.75
2018-03-28T14:16:45.203Z,69.14
2018-03-28T14:19:17.728Z,68.68
2018-03-28T14:21:50.549Z,68.60
2018-03-28T14:24:23.124Z,68.73
2018-03-28T14:26:55.859Z,68.82
2018-03-28T14:29:28.554Z,70.18
2018-03-28T14:32:01.114Z,68.90
2018-03-28T14:34:33.596Z,69.59
2018-03-28T14:37:06.104Z,70.28
2018-03-28T14:39:38.583Z,69.70
2018-03-28T14:42:11.083Z,69.21
2018-03-28T14:44:43.562Z,69.65
2018-03-28T14:47:16.060Z,70.99
2018-03-28T14:49:48.669Z,69.04
2018-03-28T14:52:21.380Z,70.95
2018-03-28T14:54:53.999Z,69.99
2018-03-28T14:57:26.618Z,69.37
2018-03-28T14:59:59.118Z,69.67
2018-03-28T15:02:31.630Z,68.81
2018-03-28T15:05:04.230Z,68.18
2018-03-28T15:07:36.767Z,68.69
2018-03-28T15:10:09.218Z,68.26
2018-03-28T15:12:41.715Z,70.23
2018-03-28T15:15:14.194Z,70.43
2018-03-28T15:17:46.721Z,70.02
2018-03-28T15:20:19.424Z,69.79
2018-03-28T15:22:52.177Z,69.18
2018-03-28T15:25:24.864Z,70.07
2018-03-28T15:27:57.514Z,70.19
2018-03-28T15:30:30.013Z,69.95
2018-03-28T15:33:02.531Z,69.37
2018-03-28T15:35:35.011Z,69.80
2018-03-28T15:38:07.507Z,69.13
2018-03-28T15:40:40.229Z,70.47
2018-03-28T15:43:12.772Z,69.57
2018-03-28T15:45:45.251Z,68.14
2018-03-28T15:48:17.758Z,70.09
2018-03-28T15:50:50.339Z,69.44
2018-03-28T15:53:22.981Z,68.69
2018-03-28T15:55:55.517Z,70.27
2018-03-28T15:58:28.118Z,70.56
2018-03-28T16:01:00.598Z,69.61
2018-03-28T16:03:33.114Z,70.19
2018-03-28T16:06:05.590Z,69.74
2018-03-28T16:08:38.085Z,70.33
2018-03-28T16:11:10.573Z,71.25
2018-03-28T16:13:43.074Z,70.33
2018-03-28T16:16:15.547Z,70.84
2018-03-28T16:18:48.174Z,70.39
2018-03-28T16:21:21.758Z,70.48
2018-03-28T16:23:54.732Z,70.76
2018-03-28T16:26:27.487Z,70.13
2018-03-28T16:29:00.148Z,69.83
2018-03-28T16:31:32.720Z,70.53
2018-03-28T16:34:05.236Z,70.73
2018-03-28T16:36:37.702Z,70.23
2018-03-28T16:39:10.194Z,69.81
2018-03-28T16:41:42.666Z,70.28
2018-03-28T16:44:15.162Z,70.51
2018-03-28T16:46:47.677Z,69.35
2018-03-28T16:49:20.328Z,70.41
2018-03-28T16:51:53.038Z,70.13
2018-03-28T16:54:25.781Z,70.40
2018-03-28T16:56:58.415Z,69.59
2018-03-28T16:59:30.999Z,70.33
2018-03-28T17:02:03.549Z,69.60
2018-03-28T17:04:36.047Z,70.31
2018-03-28T17:07:08.542Z,69.69
2018-03-28T17:09:41.031Z,69.75
2018-03-28T17:12:13.564Z,69.05
2018-03-28T17:14:46.043Z,68.87
2018-03-28T17:17:18.970Z,69.79
2018-03-28T17:19:51.884Z,70.41
2018-03-28T17:22:24.563Z,69.89
2018-03-28T17:24:57.139Z,70.73
2018-03-28T17:27:29.704Z,70.00
2018-03-28T17:30:02.250Z,69.46
2018-03-28T17:32:34.755Z,70.99
2018-03-28T17:35:07.242Z,69.76
2018-03-28T17:37:39.738Z,69.45
2018-03-28T17:40:12.216Z,70.27
2018-03-28T17:42:44.715Z,70.40
2018-03-28T17:45:17.201Z,69.25
2018-03-28T17:47:50.023Z,69.66
2018-03-28T17:50:22.809Z,69.92
2018-03-28T17:52:55.438Z,70.15
2018-03-28T17:55:28.019Z,70.59
2018-03-28T17:58:00.988Z,69.97
2018-03-28T18:00:33.603Z,70.88
2018-03-28T18:03:06.259Z,70.94
2018-03-28T18:05:38.990Z,70.38
2018-03-28T18:08:11.620Z,70.58
2018-03-28T18:10:44.097Z,71.55
2018-03-28T18:13:16.608Z,70.48
2018-03-28T18:15:49.091Z,70.45
2018-03-28T18:18:21.590Z,70.75
2018-03-28T18:20:54.073Z,71.23
2018-03-28T18:23:26.583Z,70.60
2018-03-28T18:25:59.414Z,71.45
2018-03-28T18:28:32.374Z,71.79
2018-03-28T18:31:05.206Z,71.24
2018-03-28T18:33:37.877Z,70.75
2018-03-28T18:36:10.635Z,70.44
2018-03-28T18:38:43.166Z,71.31
2018-03-28T18:41:15.640Z,70.32
2018-03-28T18:43:48.131Z,70.04
2018-03-28T18:46:20.608Z,72.02
2018-03-28T18:48:53.116Z,71.26
2018-03-28T18:51:25.583Z,72.01
2018-03-28T18:53:58.749Z,72.03
2018-03-28T18:56:31.580Z,71.78
2018-03-28T18:59:04.388Z,73.67
2018-03-28T19:01:36.919Z,72.03
2018-03-28T19:04:09.598Z,72.82
2018-03-28T19:06:42.097Z,72.64
2018-03-28T19:09:14.606Z,72.83
2018-03-28T19:11:47.092Z,72.13
2018-03-28T19:14:19.769Z,71.56
2018-03-28T19:16:52.296Z,70.97
2018-03-28T19:19:24.832Z,72.27
2018-03-28T19:21:57.311Z,71.99
2018-03-28T19:24:30.265Z,72.22
2018-03-28T19:27:03.022Z,70.72
2018-03-28T19:29:35.625Z,71.66
2018-03-28T19:32:08.135Z,72.13
2018-03-28T19:34:40.758Z,72.09
2018-03-28T19:37:13.911Z,72.16
2018-03-28T19:39:46.446Z,73.77
2018-03-28T19:42:18.927Z,72.38
2018-03-28T19:44:51.420Z,73.97
2018-03-28T19:47:23.890Z,72.79
2018-03-28T19:49:56.467Z,72.78
2018-03-28T19:52:29.173Z,73.44
2018-03-28T19:55:01.885Z,72.29
2018-03-28T19:57:34.678Z,72.74
2018-03-28T20:00:07.292Z,73.27
2018-03-28T20:02:39.895Z,73.23
2018-03-28T20:05:12.439Z,74.10
2018-03-28T20:07:44.947Z,71.91
2018-03-28T20:10:17.455Z,72.51
2018-03-28T20:12:49.933Z,72.46
2018-03-28T20:15:22.538Z,73.44
2018-03-28T20:17:55.023Z,72.27
2018-03-28T20:20:27.583Z,74.04
2018-03-28T20:23:00.161Z,71.52
2018-03-28T20:25:32.962Z,71.95
2018-03-28T20:28:05.675Z,72.46
2018-03-28T20:30:38.315Z,72.23
2018-03-28T20:33:10.864Z,73.40
2018-03-28T20:35:43.379Z,72.63
2018-03-28T20:38:15.898Z,72.50
2018-03-28T20:40:48.390Z,72.04
2018-03-28T20:43:20.916Z,72.06
2018-03-28T20:45:53.419Z,73.22
2018-03-28T20:48:25.891Z,72.60
2018-03-28T20:50:58.508Z,72.03
2018-03-28T20:53:31.238Z,72.02
2018-03-28T20:56:04.239Z,72.02
2018-03-28T20:58:36.845Z,73.04
2018-03-28T21:01:09.398Z,72.73
2018-03-28T21:03:41.939Z,71.70
2018-03-28T21:06:14.451Z,72.49
2018-03-28T21:08:46.924Z,73.13
2018-03-28T21:11:19.418Z,72.67
2018-03-28T21:13:51.894Z,72.94
2018-03-28T21:16:24.396Z,73.02
2018-03-28T21:18:56.872Z,72.59
2018-03-28T21:21:29.552Z,73.00
2018-03-28T21:24:02.272Z,72.53
2018-03-28T21:26:35.141Z,72.95
2018-03-28T21:29:07.757Z,72.75
2018-03-28T21:31:40.343Z,71.21
2018-03-28T21:34:12.960Z,71.88
2018-03-28T21:36:45.576Z,72.48
2018-03-28T21:39:18.050Z,73.79
2018-03-28T21:41:50.730Z,72.33
2018-03-28T21:44:23.214Z,72.75
2018-03-28T21:46:55.719Z,70.52
2018-03-28T21:49:28.979Z,72.92
2018-03-28T21:52:01.829Z,73.31
2018-03-28T21:54:34.812Z,72.57
2018-03-28T21:57:07.814Z,73.58
2018-03-28T21:59:40.354Z,72.60
2018-03-28T22:02:12.891Z,71.73
2018-03-28T22:04:45.371Z,73.05
2018-03-28T22:07:17.887Z,72.73
2018-03-28T22:09:50.357Z,71.88
2018-03-28T22:12:22.845Z,72.75
2018-03-28T22:14:55.324Z,72.73
2018-03-28T22:17:27.841Z,71.88
2018-03-28T22:20:00.529Z,72.94
2018-03-28T22:22:33.073Z,73.01
2018-03-28T22:25:05.648Z,72.12
2018-03-28T22:27:38.420Z,72.18
2018-03-28T22:30:10.962Z,73.93
2018-03-28T22:32:43.519Z,72.98
2018-03-28T22:35:15.988Z,71.66
2018-03-28T22:37:48.490Z,71.39
2018-03-28T22:40:20.959Z,72.67
2018-03-28T22:42:53.459Z,71.11
2018-03-28T22:45:25.946Z,72.77
2018-03-28T22:47:59.834Z,71.95
2018-03-28T22:50:33.128Z,71.60
2018-03-28T22:53:05.752Z,71.78
2018-03-28T22:55:38.297Z,71.65
2018-03-28T22:58:10.986Z,71.19
2018-03-28T23:00:43.499Z,71.49
2018-03-28T23:03:16.019Z,71.02
2018-03-28T23:05:48.492Z,70.79
2018-03-28T23:08:20.986Z,70.67
2018-03-28T23:10:53.454Z,70.29
2018-03-28T23:13:25.955Z,69.68
2018-03-28T23:15:58.480Z,72.15
2018-03-28T23:18:31.528Z,71.79
2018-03-28T23:21:04.256Z,72.43
2018-03-28T23:23:36.912Z,72.95
2018-03-28T23:26:09.484Z,72.29
2018-03-28T23:28:42.246Z,71.39
2018-03-28T23:31:14.749Z,70.62
2018-03-28T23:33:47.254Z,70.70
2018-03-28T23:36:19.727Z,70.58
2018-03-28T23:38:52.274Z,70.32
2018-03-28T23:41:24.756Z,69.90
2018-03-28T23:43:57.271Z,69.80
2018-03-28T23:46:31.003Z,70.02
2018-03-28T23:49:03.834Z,70.16
2018-03-28T23:51:36.383Z,70.12
2018-03-28T23:54:09.032Z,70.39
2018-03-28T23:56:41.592Z,69.90
2018-03-28T23:59:14.085Z,70.13
